Time;durP1;ratioP1;P1;durP2;ratioP2;P2;SDS_P1;SDS_P2;PMS_P1;PMS_P2;Temp;Humidity;BMP_temperature;BMP_pressure;BME280_temperature;BME280_humidity;BME280_pressure;Samples;Min_cycle;Max_cycle;Signal;HPM_P1;HPM_P2
2024/01/12 00:02:09;;;;;;;3.40;2.47;;;;;;;2.25;50.75;100492.50;4449271;32;33466;-79
2024/01/12 00:04:37;;;;;;;4.35;2.03;;;;;;;2.37;50.25;100495.97;4458376;32;35099;-80
2024/01/12 00:07:05;;;;;;;5.25;2.17;;;;;;;2.06;51.09;100485.53;4443820;32;33852;-79
2024/01/12 00:09:33;;;;;;;1.05;1.05;;;;;;;2.22;50.89;100492.50;4447847;32;33754;-80
2024/01/12 00:12:01;;;;;;;1.23;1.12;;;;;;;2.12;50.88;100495.94;4454178;32;33680;-80
2024/01/12 00:14:28;;;;;;;0.13;0.13;;;;;;;1.85;51.51;100486.34;4434865;32;33878;-80
2024/01/12 00:16:56;;;;;;;4.40;2.75;;;;;;;2.11;50.94;100486.41;4445946;32;34450;-80
2024/01/12 00:19:24;;;;;;;1.50;1.25;;;;;;;2.02;51.44;100478.56;4447994;32;34789;-81
2024/01/12 00:21:52;;;;;;;1.30;1.27;;;;;;;2.04;51.38;100484.63;4462034;32;34318;-82
2024/01/12 00:24:20;;;;;;;0.62;0.62;;;;;;;2.10;51.00;100476.84;4445810;32;33346;-81
2024/01/12 00:26:49;;;;;;;0.17;0.17;;;;;;;1.99;51.38;100465.53;4449035;32;34447;-81
2024/01/12 00:29:16;;;;;;;0.03;0.03;;;;;;;1.76;52.21;100466.38;4446312;32;33545;-81
2024/01/12 00:31:45;;;;;;;0.80;0.80;;;;;;;1.76;52.18;100474.19;4449480;32;32323;-81
2024/01/12 00:34:13;;;;;;;1.00;0.98;;;;;;;1.84;52.14;100488.94;4447532;32;33716;-81
2024/01/12 00:36:41;;;;;;;0.98;0.98;;;;;;;2.04;51.72;100488.16;4448735;32;33318;-81
2024/01/12 00:39:08;;;;;;;2.47;1.27;;;;;;;2.00;51.52;100480.31;4448727;32;34177;-81
2024/01/12 00:41:36;;;;;;;0.32;0.32;;;;;;;2.03;51.68;100488.13;4456907;32;34232;-80
2024/01/12 00:44:05;;;;;;;3.72;1.48;;;;;;;2.15;51.16;100485.53;4460399;32;34242;-79
2024/01/12 00:46:33;;;;;;;2.00;1.90;;;;;;;1.99;51.59;100481.16;4446643;32;34640;-79
2024/01/12 00:49:01;;;;;;;1.37;1.25;;;;;;;2.19;51.25;100489.91;4449457;32;34343;-79
2024/01/12 00:51:29;;;;;;;1.67;1.55;;;;;;;2.14;51.45;100494.22;4429852;32;32828;-80
2024/01/12 00:53:56;;;;;;;0.37;0.37;;;;;;;2.22;51.22;100489.88;4440255;32;33632;-79
2024/01/12 00:56:24;;;;;;;0.62;0.62;;;;;;;1.54;53.21;100496.66;4442248;32;34827;-80
2024/01/12 00:58:52;;;;;;;3.45;2.25;;;;;;;1.47;53.85;100499.22;4441307;32;34535;-79
2024/01/12 01:01:20;;;;;;;0.22;0.22;;;;;;;1.84;52.65;100496.75;4442418;32;33026;-80
2024/01/12 01:03:48;;;;;;;0.65;0.65;;;;;;;1.84;52.87;100508.03;4454544;32;33369;-80
2024/01/12 01:06:16;;;;;;;0.70;0.70;;;;;;;1.86;52.44;100508.06;4454978;32;33593;-80
2024/01/12 01:08:45;;;;;;;2.35;2.15;;;;;;;1.92;52.05;100515.88;4441364;32;34818;-80
2024/01/12 01:11:14;;;;;;;3.47;2.80;;;;;;;1.68;52.98;100517.53;4442101;32;33623;-80
2024/01/12 01:13:42;;;;;;;0.17;0.17;;;;;;;2.03;52.03;100508.94;4442513;32;32912;-81
2024/01/12 01:16:10;;;;;;;4.03;3.20;;;;;;;2.07;51.92;100518.53;4442871;32;33326;-81
2024/01/12 01:18:38;;;;;;;1.27;1.02;;;;;;;1.98;52.20;100516.75;4452076;32;33255;-80
2024/01/12 01:21:05;;;;;;;0.47;0.47;;;;;;;1.75;52.92;100516.69;4442075;32;33320;-81
2024/01/12 01:23:33;;;;;;;0.93;0.93;;;;;;;1.59;53.42;100514.91;4454783;32;33362;-80
2024/01/12 01:26:02;;;;;;;3.50;2.78;;;;;;;1.62;53.33;100511.44;4435357;32;33755;-80
2024/01/12 01:28:29;;;;;;;1.85;1.75;;;;;;;1.43;54.14;100519.16;4467341;32;34133;-81
2024/01/12 01:30:57;;;;;;;2.08;1.98;;;;;;;1.25;54.44;100524.28;4453887;32;32353;-80
2024/01/12 01:33:26;;;;;;;1.55;0.95;;;;;;;1.73;53.32;100512.34;4442219;32;33087;-80
2024/01/12 01:35:54;;;;;;;1.23;1.15;;;;;;;1.73;53.28;100513.22;4455125;32;34666;-80
2024/01/12 01:38:22;;;;;;;1.08;1.08;;;;;;;2.13;52.10;100513.31;4428902;32;33934;-80
2024/01/12 01:40:50;;;;;;;1.30;1.20;;;;;;;2.15;51.92;100514.22;4441794;32;31868;-80
2024/01/12 01:43:17;;;;;;;0.85;0.85;;;;;;;2.00;52.08;100512.44;4441937;32;34291;-80
2024/01/12 01:45:45;;;;;;;2.83;2.50;;;;;;;2.15;52.00;100502.91;4428922;32;33262;-81
2024/01/12 01:48:13;;;;;;;4.00;2.83;;;;;;;1.85;52.81;100511.50;4429477;32;33232;-80
2024/01/12 01:50:42;;;;;;;1.95;1.85;;;;;;;2.07;52.01;100510.72;4456507;32;33169;-80
2024/01/12 01:53:10;;;;;;;2.03;1.15;;;;;;;2.03;52.22;100501.13;4435586;32;33136;-81
2024/01/12 01:55:38;;;;;;;2.28;2.17;;;;;;;1.91;52.42;100507.19;4462224;32;34683;-80
2024/01/12 01:58:06;;;;;;;0.55;0.52;;;;;;;1.72;53.41;100506.28;4439163;32;32670;-80
2024/01/12 02:00:34;;;;;;;3.05;2.83;;;;;;;1.70;53.71;100500.19;4446844;32;31991;-80
2024/01/12 02:03:03;;;;;;;0.45;0.45;;;;;;;2.00;52.92;100502.03;4454594;32;34521;-81
2024/01/12 02:05:31;;;;;;;1.40;1.23;;;;;;;1.98;52.61;100501.13;4446676;32;35216;-80
2024/01/12 02:07:58;;;;;;;0.57;0.57;;;;;;;2.03;52.88;100501.13;4445881;32;34617;-80
2024/01/12 02:10:27;;;;;;;0.85;0.85;;;;;;;2.13;52.22;100500.28;4435248;32;32894;-80
2024/01/12 02:12:55;;;;;;;0.68;0.68;;;;;;;2.10;52.46;100504.66;4458863;32;33796;-79
2024/01/12 02:15:23;;;;;;;2.10;1.48;;;;;;;2.23;52.05;100514.19;4446925;32;33596;-79
2024/01/12 02:17:51;;;;;;;0.55;0.55;;;;;;;2.12;52.43;100500.28;4436007;32;33533;-80
2024/01/12 02:20:19;;;;;;;1.60;1.50;;;;;;;2.14;52.58;100509.00;4449208;32;33505;-80
2024/01/12 02:22:46;;;;;;;1.00;1.00;;;;;;;2.13;52.34;100513.31;4446649;32;33892;-80
2024/01/12 02:25:15;;;;;;;0.20;0.20;;;;;;;2.23;52.20;100511.59;4461729;32;32568;-79
2024/01/12 02:27:43;;;;;;;1.10;1.10;;;;;;;2.04;52.88;100515.91;4450296;32;34993;-79
2024/01/12 02:30:11;;;;;;;1.58;1.08;;;;;;;2.28;52.27;100513.38;4446544;32;32050;-79
2024/01/12 02:32:39;;;;;;;1.00;1.00;;;;;;;1.86;53.31;100528.91;4446852;32;34812;-79
2024/01/12 02:35:07;;;;;;;1.33;1.27;;;;;;;2.05;52.75;100530.69;4447152;32;34109;-79
2024/01/12 02:37:34;;;;;;;1.37;1.27;;;;;;;2.04;53.20;100532.44;4435946;32;33686;-79
2024/01/12 02:40:03;;;;;;;0.52;0.52;;;;;;;1.62;54.48;100538.34;4438594;32;32447;-79
2024/01/12 02:42:31;;;;;;;2.65;1.23;;;;;;;1.40;55.21;100533.91;4450251;32;31970;-79
2024/01/12 02:44:58;;;;;;;1.58;1.48;;;;;;;1.40;55.35;100539.09;4446196;32;34740;-79
2024/01/12 02:47:26;;;;;;;0.90;0.90;;;;;;;1.60;54.29;100542.66;4436314;32;33067;-79
2024/01/12 02:49:54;;;;;;;0.40;0.40;;;;;;;1.67;54.51;100538.37;4434561;32;33751;-79
2024/01/12 02:52:21;;;;;;;0.85;0.85;;;;;;;1.68;54.39;100543.56;4450140;32;32919;-79
2024/01/12 02:54:49;;;;;;;0.35;0.35;;;;;;;1.50;55.20;100557.38;4450142;32;32948;-79
2024/01/12 02:57:17;;;;;;;5.45;1.60;;;;;;;2.00;53.35;100558.47;4443935;32;34404;-79
2024/01/12 02:59:45;;;;;;;0.28;0.28;;;;;;;2.08;53.41;100555.84;4448473;32;33596;-79
2024/01/12 03:02:13;;;;;;;4.50;3.75;;;;;;;1.75;54.32;100560.94;4448764;32;33166;-79
2024/01/12 03:04:40;;;;;;;1.75;1.55;;;;;;;1.77;54.69;100564.44;4450136;32;34832;-79
2024/01/12 03:07:08;;;;;;;1.87;1.58;;;;;;;1.65;54.95;100559.16;4448196;32;34217;-79
2024/01/12 03:09:36;;;;;;;0.22;0.22;;;;;;;1.70;54.79;100553.97;4447800;32;34813;-79
2024/01/12 03:12:03;;;;;;;4.35;0.85;;;;;;;2.07;53.52;100551.53;4448846;32;33485;-79
2024/01/12 03:14:31;;;;;;;0.62;0.62;;;;;;;1.83;53.84;100549.69;4446057;32;33035;-79
2024/01/12 03:16:59;;;;;;;1.02;0.90;;;;;;;1.73;54.49;100557.47;4459371;32;34109;-79
2024/01/12 03:19:26;;;;;;;1.23;0.65;;;;;;;1.40;55.57;100562.50;4458577;32;33504;-79
2024/01/12 03:21:55;;;;;;;0.82;0.82;;;;;;;1.67;54.35;100554.00;4446454;32;33602;-79
2024/01/12 03:24:22;;;;;;;0.32;0.32;;;;;;;1.86;54.06;100552.34;4460904;32;33604;-79
2024/01/12 03:26:50;;;;;;;1.73;1.65;;;;;;;1.65;54.41;100550.50;4460796;32;33736;-79
2024/01/12 03:29:18;;;;;;;1.83;1.75;;;;;;;1.79;53.90;100549.69;4447500;32;32837;-81
2024/01/12 03:31:46;;;;;;;1.65;1.55;;;;;;;1.75;53.90;100553.13;4447100;32;34095;-80
2024/01/12 03:34:14;;;;;;;1.05;1.02;;;;;;;1.88;53.77;100546.25;4464513;32;33620;-79
2024/01/12 03:36:42;;;;;;;1.05;1.05;;;;;;;1.52;54.62;100552.19;4434000;32;32874;-80
2024/01/12 03:39:10;;;;;;;0.08;0.08;;;;;;;1.37;55.24;100549.47;4446798;32;32469;-80
2024/01/12 03:41:38;;;;;;;1.45;1.10;;;;;;;1.21;55.60;100557.19;4446827;32;33402;-80
2024/01/12 03:44:05;;;;;;;1.50;1.20;;;;;;;1.38;55.02;100556.44;4449626;32;34143;-79
2024/01/12 03:46:33;;;;;;;0.98;0.98;;;;;;;1.16;55.58;100556.31;4455143;32;34779;-80
2024/01/12 03:49:00;;;;;;;1.85;1.75;;;;;;;1.14;56.17;100563.25;4464318;32;34322;-80
2024/01/12 03:51:28;;;;;;;0.82;0.82;;;;;;;1.30;55.50;100559.00;4450322;32;34177;-79
2024/01/12 03:53:56;;;;;;;0.52;0.52;;;;;;;1.65;54.44;100561.78;4455737;32;32549;-79
2024/01/12 03:56:24;;;;;;;0.70;0.70;;;;;;;1.43;54.41;100565.16;4461627;32;34739;-79
2024/01/12 03:58:51;;;;;;;0.70;0.70;;;;;;;1.29;55.32;100578.06;4464290;32;33662;-80
2024/01/12 04:01:21;;;;;;;2.10;1.60;;;;;;;1.74;54.02;100577.44;4461671;32;33811;-80
2024/01/12 04:03:49;;;;;;;1.73;1.65;;;;;;;1.34;55.12;100572.91;4455552;32;32756;-81
2024/01/12 04:06:18;;;;;;;1.15;0.85;;;;;;;1.13;55.44;100571.88;4448750;32;33991;-79
2024/01/12 04:08:46;;;;;;;0.20;0.20;;;;;;;1.46;54.94;100580.75;4460802;32;33328;-79
2024/01/12 04:11:22;;;;;;;0.70;0.70;;;;;;;1.53;54.64;100577.34;4460986;32;34340;-80
2024/01/12 04:13:50;;;;;;;0.85;0.85;;;;;;;1.68;54.53;100574.81;4463130;32;33909;-79
2024/01/12 04:16:19;;;;;;;1.17;1.05;;;;;;;1.51;54.04;100582.53;4462518;32;33022;-80
2024/01/12 04:18:46;;;;;;;0.00;0.00;;;;;;;1.35;54.94;100580.69;4462231;32;33577;-80
2024/01/12 04:21:14;;;;;;;0.00;0.00;;;;;;;1.11;56.23;100578.81;4450482;32;33901;-80
2024/01/12 04:23:42;;;;;;;2.10;1.95;;;;;;;1.01;56.47;100583.06;4464249;32;33554;-80
2024/01/12 04:26:10;;;;;;;1.98;1.42;;;;;;;1.41;54.82;100578.12;4447221;32;33223;-80
2024/01/12 04:28:37;;;;;;;0.20;0.20;;;;;;;1.44;54.99;100577.28;4465554;32;32921;-79
2024/01/12 04:31:06;;;;;;;1.87;1.67;;;;;;;1.44;55.09;100588.56;4461321;32;33238;-79
2024/01/12 04:33:34;;;;;;;1.02;1.02;;;;;;;1.24;55.35;100590.19;4448942;32;33829;-80
2024/01/12 04:36:02;;;;;;;0.00;0.00;;;;;;;1.51;54.89;100586.84;4448849;32;33789;-80
2024/01/12 04:38:30;;;;;;;0.85;0.85;;;;;;;1.23;55.32;100584.09;4449052;32;34261;-80
2024/01/12 04:40:58;;;;;;;0.55;0.55;;;;;;;1.23;55.45;100597.09;4460919;32;33871;-80
2024/01/12 04:43:25;;;;;;;0.20;0.20;;;;;;;1.31;55.29;100594.56;4447771;32;33902;-81
2024/01/12 04:45:53;;;;;;;0.98;0.68;;;;;;;1.06;55.79;100593.50;4449870;32;34732;-81
2024/01/12 04:48:21;;;;;;;0.00;0.00;;;;;;;1.34;55.33;100594.59;4461379;32;33185;-81
2024/01/12 04:50:49;;;;;;;0.32;0.32;;;;;;;1.41;54.56;100598.06;4449073;32;32706;-81
2024/01/12 04:53:17;;;;;;;1.08;0.98;;;;;;;1.06;56.10;100595.25;4450504;32;33560;-79
2024/01/12 04:55:45;;;;;;;0.55;0.43;;;;;;;1.25;55.44;100597.97;4449174;32;32428;-79
2024/01/12 04:58:12;;;;;;;1.30;1.30;;;;;;;0.90;56.52;100599.44;4463080;32;33350;-79
2024/01/12 05:00:40;;;;;;;1.35;1.25;;;;;;;0.55;57.39;100609.53;4469076;32;33869;-79
2024/01/12 05:03:07;;;;;;;3.00;0.60;;;;;;;0.91;56.83;100612.47;4458364;32;33679;-80
2024/01/12 05:05:36;;;;;;;0.00;0.00;;;;;;;0.99;56.36;100615.12;4435474;32;32381;-79
2024/01/12 05:08:04;;;;;;;0.55;0.55;;;;;;;0.82;57.41;100621.91;4447255;32;33946;-80
2024/01/12 05:10:32;;;;;;;0.00;0.00;;;;;;;1.18;55.61;100627.41;4474506;32;34316;-80
2024/01/12 05:13:00;;;;;;;0.98;0.70;;;;;;;0.82;56.79;100627.13;4449801;32;34058;-80
2024/01/12 05:15:27;;;;;;;0.80;0.80;;;;;;;0.72;57.47;100627.03;4449930;32;33428;-81
2024/01/12 05:17:55;;;;;;;0.10;0.10;;;;;;;0.84;57.00;100625.41;4442443;32;32600;-81
2024/01/12 05:20:25;;;;;;;0.30;0.30;;;;;;;1.06;56.52;100637.72;4473891;32;33494;-80
2024/01/12 05:22:53;;;;;;;0.10;0.10;;;;;;;1.22;55.80;100641.31;4446659;32;32489;-78
2024/01/12 05:25:20;;;;;;;2.45;2.25;;;;;;;1.05;55.44;100636.00;4446179;32;34670;-78
2024/01/12 05:27:48;;;;;;;0.85;0.85;;;;;;;1.09;55.96;100632.53;4432934;32;33447;-79
2024/01/12 05:30:16;;;;;;;0.20;0.20;;;;;;;1.19;55.49;100644.78;4440952;32;33644;-79
2024/01/12 05:32:43;;;;;;;1.67;1.35;;;;;;;1.15;55.69;100647.34;4461243;32;33735;-79
2024/01/12 05:35:11;;;;;;;0.00;0.00;;;;;;;1.09;55.76;100655.06;4436981;32;34308;-79
2024/01/12 05:37:42;;;;;;;0.10;0.10;;;;;;;1.05;55.38;100659.41;4454803;32;34188;-79
2024/01/12 05:40:10;;;;;;;0.77;0.77;;;;;;;1.21;55.63;100657.78;4448753;32;34677;-79
2024/01/12 05:42:38;;;;;;;0.00;0.00;;;;;;;1.02;56.08;100656.75;4448338;32;34394;-79
2024/01/12 05:45:06;;;;;;;1.98;0.85;;;;;;;1.11;55.80;100666.38;4447434;32;33602;-79
2024/01/12 05:47:34;;;;;;;0.05;0.05;;;;;;;1.27;55.17;100670.84;4467532;32;34291;-80
2024/01/12 05:50:03;;;;;;;0.30;0.30;;;;;;;1.31;54.74;100669.12;4441096;32;33639;-80
2024/01/12 05:52:32;;;;;;;0.13;0.13;;;;;;;1.17;55.86;100677.69;4449794;32;34563;-79
2024/01/12 05:54:59;;;;;;;0.28;0.28;;;;;;;0.91;56.79;100680.06;4461522;32;34160;-79
2024/01/12 05:57:27;;;;;;;0.20;0.20;;;;;;;0.61;57.50;100685.81;4435234;32;32595;-79
2024/01/12 05:59:55;;;;;;;0.10;0.10;;;;;;;0.76;56.98;100690.34;4449899;32;33251;-79
2024/01/12 06:02:23;;;;;;;1.98;1.85;;;;;;;0.84;56.99;100682.59;4449292;32;32658;-79
2024/01/12 06:04:51;;;;;;;2.47;1.27;;;;;;;0.82;57.09;100689.50;4448460;32;32974;-79
2024/01/12 06:07:18;;;;;;;0.00;0.00;;;;;;;0.94;56.50;100672.28;4448883;32;32739;-79
2024/01/12 06:09:46;;;;;;;0.00;0.00;;;;;;;1.11;56.02;100677.66;4449499;32;33454;-79
2024/01/12 06:12:13;;;;;;;0.00;0.00;;;;;;;0.80;56.80;100686.00;4461297;32;34028;-79
2024/01/12 06:14:41;;;;;;;0.65;0.65;;;;;;;0.92;56.74;100687.00;4451620;32;33353;-79
2024/01/12 06:17:09;;;;;;;1.17;0.52;;;;;;;1.17;55.56;100682.03;4446794;32;33306;-79
2024/01/12 06:19:37;;;;;;;2.05;0.80;;;;;;;1.08;55.91;100693.22;4467077;32;33428;-79
2024/01/12 06:22:05;;;;;;;0.35;0.35;;;;;;;1.26;55.66;100701.19;4452995;32;32084;-79
2024/01/12 06:24:33;;;;;;;0.40;0.40;;;;;;;1.05;56.38;100698.41;4451375;32;32351;-79
2024/01/12 06:27:01;;;;;;;1.62;0.98;;;;;;;1.08;56.11;100692.34;4448529;32;32837;-79
2024/01/12 06:29:31;;;;;;;0.10;0.10;;;;;;;1.03;56.36;100705.31;4451916;32;33232;-79
2024/01/12 06:32:00;;;;;;;0.45;0.40;;;;;;;0.71;56.98;100710.19;4468056;32;34556;-81
2024/01/12 06:34:28;;;;;;;0.00;0.00;;;;;;;0.69;57.64;100710.16;4449830;32;33950;-80
2024/01/12 06:36:58;;;;;;;0.85;0.85;;;;;;;0.79;57.39;100713.75;4456090;32;33335;-80
2024/01/12 06:39:26;;;;;;;0.03;0.03;;;;;;;0.66;57.97;100715.31;4450874;32;33754;-80
2024/01/12 06:41:54;;;;;;;0.00;0.00;;;;;;;0.69;57.61;100710.16;4463445;32;34816;-80
2024/01/12 06:44:22;;;;;;;0.10;0.10;;;;;;;0.61;58.08;100714.41;4451521;32;34854;-80
2024/01/12 06:46:49;;;;;;;0.85;0.85;;;;;;;0.59;58.05;100718.72;4459645;32;34323;-80
2024/01/12 06:49:17;;;;;;;0.00;0.00;;;;;;;0.92;56.93;100714.75;4448506;32;33393;-80
2024/01/12 06:51:45;;;;;;;0.37;0.37;;;;;;;0.94;56.90;100719.09;4462384;32;34365;-80
2024/01/12 06:54:12;;;;;;;0.20;0.20;;;;;;;0.90;56.65;100719.94;4450025;32;33100;-80
2024/01/12 06:56:43;;;;;;;0.00;0.00;;;;;;;0.96;56.54;100713.94;4449531;32;33166;-80
2024/01/12 06:59:10;;;;;;;0.00;0.00;;;;;;;0.86;57.37;100727.69;4451266;32;33895;-80
2024/01/12 07:01:38;;;;;;;0.00;0.00;;;;;;;0.72;57.74;100715.41;4447369;32;34247;-80
2024/01/12 07:04:07;;;;;;;0.32;0.32;;;;;;;0.85;56.65;100711.19;4475803;32;34746;-80
2024/01/12 07:06:35;;;;;;;0.10;0.10;;;;;;;0.73;57.09;100722.34;4443469;32;32145;-81
2024/01/12 07:09:03;;;;;;;0.00;0.00;;;;;;;1.00;56.89;100726.09;4466187;32;32970;-80
2024/01/12 07:11:31;;;;;;;0.08;0.08;;;;;;;0.85;57.24;100731.13;4435966;32;32598;-80
2024/01/12 07:13:59;;;;;;;4.28;1.98;;;;;;;0.48;58.93;100741.13;4447694;32;33911;-80
2024/01/12 07:16:26;;;;;;;0.88;0.50;;;;;;;0.75;57.89;100745.75;4434249;32;32213;-80
2024/01/12 07:18:54;;;;;;;1.45;1.35;;;;;;;1.00;57.16;100731.31;4449330;32;34422;-80
2024/01/12 07:21:22;;;;;;;0.43;0.43;;;;;;;0.98;57.26;100751.22;4450625;32;32929;-80
2024/01/12 07:23:49;;;;;;;0.90;0.90;;;;;;;1.03;57.29;100742.59;4449508;32;33440;-80
2024/01/12 07:26:17;;;;;;;0.55;0.55;;;;;;;1.14;57.12;100744.41;4461787;32;33518;-80
2024/01/12 07:28:46;;;;;;;0.62;0.62;;;;;;;0.96;57.82;100755.53;4462242;32;33455;-80
2024/01/12 07:31:13;;;;;;;4.62;0.95;;;;;;;1.06;57.98;100746.97;4460096;32;34564;-80
2024/01/12 07:33:41;;;;;;;1.58;1.48;;;;;;;1.02;57.57;100746.06;4450021;32;32867;-78
2024/01/12 07:36:09;;;;;;;1.02;0.88;;;;;;;0.83;58.71;100754.53;4459049;32;33584;-78
2024/01/12 07:38:37;;;;;;;1.45;1.35;;;;;;;1.00;58.65;100741.72;4445607;32;32430;-79
2024/01/12 07:41:05;;;;;;;1.90;1.75;;;;;;;1.33;57.63;100740.25;4450218;32;34096;-78
2024/01/12 07:43:33;;;;;;;0.98;0.98;;;;;;;1.45;57.20;100740.38;4447449;32;33566;-80
2024/01/12 07:46:00;;;;;;;0.75;0.75;;;;;;;0.79;59.14;100746.66;4448153;32;33163;-81
2024/01/12 07:48:29;;;;;;;0.32;0.28;;;;;;;1.20;58.29;100749.69;4452162;32;33937;-81
2024/01/12 07:50:57;;;;;;;2.25;2.05;;;;;;;1.46;57.50;100748.19;4465509;32;33678;-81
2024/01/12 07:53:25;;;;;;;0.20;0.20;;;;;;;1.41;57.71;100746.41;4461719;32;34375;-81
2024/01/12 07:55:53;;;;;;;0.73;0.73;;;;;;;1.22;58.45;100754.03;4453201;32;32954;-81
2024/01/12 07:58:20;;;;;;;0.00;0.00;;;;;;;1.47;57.21;100754.25;4435845;32;33240;-81
2024/01/12 08:00:49;;;;;;;1.35;1.25;;;;;;;1.45;57.63;100756.84;4446317;32;33748;-81
2024/01/12 08:03:17;;;;;;;0.73;0.62;;;;;;;1.48;57.38;100762.09;4452278;32;34012;-81
2024/01/12 08:05:45;;;;;;;0.22;0.22;;;;;;;1.09;58.98;100770.38;4447638;32;32417;-81
2024/01/12 08:08:13;;;;;;;1.65;1.45;;;;;;;1.20;58.91;100776.59;4474535;32;33546;-81
2024/01/12 08:10:40;;;;;;;0.10;0.10;;;;;;;1.78;56.89;100774.47;4461065;32;34042;-81
2024/01/12 08:13:09;;;;;;;0.70;0.70;;;;;;;1.76;57.12;100778.81;4451449;32;33804;-83
2024/01/12 08:15:37;;;;;;;0.47;0.47;;;;;;;1.79;57.01;100776.22;4451388;32;32949;-81
2024/01/12 08:18:05;;;;;;;0.80;0.80;;;;;;;1.56;57.73;100780.38;4449819;32;33786;-81
2024/01/12 08:20:33;;;;;;;0.93;0.93;;;;;;;1.89;56.38;100776.28;4463854;32;34739;-80
2024/01/12 08:23:01;;;;;;;1.23;1.12;;;;;;;1.89;56.45;100791.91;4460619;32;33567;-81
2024/01/12 08:25:29;;;;;;;1.20;1.15;;;;;;;1.75;57.18;100791.81;4460011;32;33484;-81
2024/01/12 08:27:57;;;;;;;1.65;1.55;;;;;;;2.09;56.05;100786.84;4461344;32;34304;-81
2024/01/12 08:30:24;;;;;;;0.52;0.52;;;;;;;2.03;55.48;100793.75;4469301;32;33700;-81
2024/01/12 08:32:52;;;;;;;0.55;0.55;;;;;;;2.11;55.71;100804.25;4464294;32;34871;-81
2024/01/12 08:35:20;;;;;;;0.25;0.25;;;;;;;1.58;57.28;100809.91;4451086;32;33221;-81
2024/01/12 08:37:48;;;;;;;0.85;0.85;;;;;;;1.23;58.53;100817.34;4434734;32;32750;-81
2024/01/12 08:40:15;;;;;;;0.60;0.60;;;;;;;1.43;58.13;100805.44;4475846;32;33996;-81
2024/01/12 08:42:43;;;;;;;0.10;0.10;;;;;;;1.71;57.57;100806.56;4452334;32;34401;-81
2024/01/12 08:45:12;;;;;;;0.37;0.28;;;;;;;1.82;57.39;100809.25;4460568;32;33562;-81
2024/01/12 08:47:40;;;;;;;1.05;1.00;;;;;;;1.94;56.94;100803.25;4454051;32;32263;-81
2024/01/12 08:50:08;;;;;;;0.00;0.00;;;;;;;1.93;56.84;100806.72;4465201;32;34035;-81
2024/01/12 08:52:35;;;;;;;0.03;0.03;;;;;;;2.20;56.15;100814.72;4449581;32;33698;-81
2024/01/12 08:55:07;;;;;;;0.40;0.40;;;;;;;2.09;56.17;100811.19;4460894;32;33205;-81
2024/01/12 08:57:36;;;;;;;1.83;1.73;;;;;;;2.44;55.29;100811.41;4460636;32;33445;-81
2024/01/12 09:00:05;;;;;;;1.33;1.33;;;;;;;2.45;55.12;100807.91;4475925;32;34605;-80
2024/01/12 09:02:33;;;;;;;0.30;0.30;;;;;;;2.47;55.39;100811.41;4450306;32;33769;-80
2024/01/12 09:05:02;;;;;;;2.37;1.30;;;;;;;2.24;55.87;100819.09;4435966;32;33110;-81
2024/01/12 09:07:31;;;;;;;0.55;0.55;;;;;;;2.48;55.21;100823.59;4449981;32;33908;-81
2024/01/12 09:10:00;;;;;;;0.45;0.45;;;;;;;2.41;55.88;100811.38;4462090;32;33951;-81
2024/01/12 09:12:28;;;;;;;4.57;4.20;;;;;;;2.88;54.17;100812.47;4453283;32;33736;-80
2024/01/12 09:14:56;;;;;;;2.05;1.85;;;;;;;2.96;54.48;100810.75;4463773;32;34119;-80
2024/01/12 09:17:24;;;;;;;2.17;1.75;;;;;;;2.99;54.06;100819.47;4446954;32;33826;-81
2024/01/12 09:19:51;;;;;;;3.00;1.55;;;;;;;3.02;54.18;100816.84;4450505;32;33367;-81
2024/01/12 09:22:20;;;;;;;0.43;0.43;;;;;;;3.42;52.90;100819.59;4447703;32;33378;-80
2024/01/12 09:24:48;;;;;;;0.93;0.93;;;;;;;3.11;53.54;100823.84;4468557;32;33247;-81
2024/01/12 09:27:16;;;;;;;0.73;0.73;;;;;;;3.18;53.25;100833.47;4449552;32;31195;-80
2024/01/12 09:29:44;;;;;;;2.25;1.25;;;;;;;3.90;51.19;100819.63;4462220;32;34387;-81
2024/01/12 09:32:11;;;;;;;0.47;0.47;;;;;;;3.62;51.67;100818.75;4438393;32;32772;-80
2024/01/12 09:34:39;;;;;;;0.75;0.75;;;;;;;3.74;51.16;100823.94;4462495;32;34278;-81
2024/01/12 09:37:07;;;;;;;1.00;1.00;;;;;;;3.99;50.52;100823.09;4452588;32;33656;-81
2024/01/12 09:39:35;;;;;;;0.57;0.57;;;;;;;3.68;51.00;100822.22;4435029;32;35417;-81
2024/01/12 09:42:06;;;;;;;1.48;1.30;;;;;;;3.76;50.66;100823.09;4475286;32;34075;-81
2024/01/12 09:44:38;;;;;;;0.20;0.20;;;;;;;3.85;50.57;100830.06;4462845;32;33413;-82
2024/01/12 09:47:16;;;;;;;6.22;1.67;;;;;;;4.19;49.20;100830.06;4455304;32;32517;-81
2024/01/12 09:49:45;;;;;;;0.43;0.43;;;;;;;4.29;48.72;100823.94;4441423;32;34824;-81
2024/01/12 09:52:12;;;;;;;0.57;0.57;;;;;;;3.55;50.65;100825.69;4450586;32;32851;-82
2024/01/12 09:54:40;;;;;;;0.00;0.00;;;;;;;3.97;49.69;100821.34;4463557;32;34367;-81
2024/01/12 09:57:11;;;;;;;0.10;0.10;;;;;;;4.26;48.77;100818.69;4446693;32;33598;-81
2024/01/12 09:59:40;;;;;;;0.40;0.40;;;;;;;3.92;49.88;100823.09;4450835;32;33051;-81
2024/01/12 10:02:11;;;;;;;3.75;1.45;;;;;;;3.63;51.04;100820.47;4445428;32;33150;-82
2024/01/12 10:04:39;;;;;;;0.10;0.10;;;;;;;3.55;51.01;100823.06;4446643;32;32824;-82
2024/01/12 10:07:07;;;;;;;0.82;0.80;;;;;;;3.22;51.47;100816.91;4446025;32;33067;-82
2024/01/12 10:09:35;;;;;;;1.67;1.60;;;;;;;3.17;51.98;100820.37;4465077;32;33794;-82
2024/01/12 10:12:03;;;;;;;0.88;0.88;;;;;;;3.48;51.17;100821.34;4449789;32;33015;-82
2024/01/12 10:14:31;;;;;;;0.40;0.40;;;;;;;3.46;51.05;100818.69;4461021;32;32574;-82
2024/01/12 10:16:59;;;;;;;1.00;1.00;;;;;;;3.32;51.34;100818.69;4463356;32;33495;-81
2024/01/12 10:19:28;;;;;;;0.75;0.75;;;;;;;3.35;51.21;100820.44;4465286;32;34330;-82
2024/01/12 10:21:57;;;;;;;0.88;0.82;;;;;;;3.55;50.86;100810.00;4452074;32;34580;-82
2024/01/12 10:24:24;;;;;;;0.20;0.20;;;;;;;3.74;50.51;100811.75;4438141;32;33395;-82
2024/01/12 10:26:52;;;;;;;1.55;1.25;;;;;;;3.76;50.91;100811.78;4448732;32;33762;-82
2024/01/12 10:29:20;;;;;;;1.92;1.27;;;;;;;3.53;51.64;100809.16;4465613;32;34744;-82
2024/01/12 10:31:48;;;;;;;0.52;0.52;;;;;;;3.63;50.78;100813.50;4458944;32;33724;-82
2024/01/12 10:34:16;;;;;;;1.80;1.70;;;;;;;3.72;50.98;100820.47;4461909;32;32730;-82
2024/01/12 10:36:49;;;;;;;0.37;0.37;;;;;;;3.54;50.86;100806.53;4461869;32;34775;-82
2024/01/12 10:39:19;;;;;;;0.08;0.08;;;;;;;3.60;51.19;100816.09;4463001;32;32008;-82
2024/01/12 10:41:46;;;;;;;0.55;0.55;;;;;;;3.85;50.30;100807.44;4460324;32;34545;-82
2024/01/12 10:44:15;;;;;;;0.73;0.73;;;;;;;3.87;50.65;100798.72;4448578;32;32990;-82
2024/01/12 10:46:48;;;;;;;0.73;0.73;;;;;;;3.79;50.66;100798.69;4447429;32;34252;-82
2024/01/12 10:49:17;;;;;;;1.27;1.17;;;;;;;4.05;50.06;100798.69;4438949;32;33445;-82
2024/01/12 10:51:54;;;;;;;0.62;0.62;;;;;;;4.02;50.01;100799.56;4460068;32;33210;-82
2024/01/12 10:54:38;;;;;;;2.53;1.75;;;;;;;4.05;49.73;100794.34;4461150;32;34030;-82
2024/01/12 10:57:07;;;;;;;2.67;2.22;;;;;;;4.22;49.90;100790.81;4463084;32;33428;-82
2024/01/12 10:59:35;;;;;;;0.25;0.25;;;;;;;3.92;50.31;100789.13;4461191;32;34667;-82
2024/01/12 11:02:03;;;;;;;1.05;1.00;;;;;;;4.27;49.81;100778.59;4448948;32;34362;-82
2024/01/12 11:04:31;;;;;;;0.73;0.73;;;;;;;3.99;50.64;100793.50;4450042;32;32089;-82
2024/01/12 11:07:00;;;;;;;0.28;0.28;;;;;;;4.39;49.23;100788.19;4434990;32;34048;-82
2024/01/12 11:09:29;;;;;;;0.00;0.00;;;;;;;4.42;49.36;100788.19;4451772;32;33085;-82
2024/01/12 11:12:02;;;;;;;2.20;2.00;;;;;;;4.48;49.07;100794.25;4464566;32;33835;-82
2024/01/12 11:14:31;;;;;;;0.25;0.25;;;;;;;4.61;48.65;100780.25;4449210;32;32522;-82
2024/01/12 11:16:59;;;;;;;1.08;0.80;;;;;;;4.71;48.31;100781.09;4451976;32;32571;-82
2024/01/12 11:19:29;;;;;;;1.33;1.25;;;;;;;4.21;49.23;100789.09;4448447;32;34979;-81
2024/01/12 11:22:10;;;;;;;0.15;0.15;;;;;;;4.84;47.69;100777.56;4448892;32;33704;-82
2024/01/12 11:24:42;;;;;;;0.73;0.68;;;;;;;4.60;48.65;100773.28;4459436;32;32893;-82
2024/01/12 11:27:12;;;;;;;0.32;0.32;;;;;;;4.09;49.97;100777.78;4453061;32;34093;-82
2024/01/12 11:29:44;;;;;;;3.53;1.00;;;;;;;4.09;50.65;100774.31;4450061;32;34868;-82
2024/01/12 11:32:14;;;;;;;1.70;1.30;;;;;;;4.62;48.75;100778.50;4451749;32;33049;-82
2024/01/12 11:34:43;;;;;;;9.52;0.95;;;;;;;4.54;49.09;100772.44;4451191;32;32483;-81
2024/01/12 11:37:11;;;;;;;0.40;0.40;;;;;;;4.18;49.98;100774.28;4460935;32;33893;-82
2024/01/12 11:39:41;;;;;;;4.30;1.45;;;;;;;4.34;49.63;100775.97;4463267;32;34069;-82